Time;durP1;ratioP1;P1;durP2;ratioP2;P2;SDS_P1;SDS_P2;PMS_P1;PMS_P2;Temp;Humidity;BMP_temperature;BMP_pressure;BME280_temperature;BME280_humidity;BME280_pressure;Samples;Min_cycle;Max_cycle;Signal;HPM_P1;HPM_P2
2023/05/31 00:00:03;;;;;;;8.18;7.38;;;;;;;13.41;100.00;95753.50;5118163;27;20038;-69
2023/05/31 00:02:29;;;;;;;7.57;6.88;;;;;;;13.49;100.00;95750.94;5124713;27;20084;-69
2023/05/31 00:04:54;;;;;;;7.93;7.30;;;;;;;13.44;100.00;95767.28;5123619;27;20016;-69
2023/05/31 00:07:20;;;;;;;9.75;7.25;;;;;;;13.48;100.00;95769.59;5130443;27;20024;-69
2023/05/31 00:09:45;;;;;;;8.90;7.75;;;;;;;13.49;100.00;95772.09;5123837;27;20026;-69
2023/05/31 00:12:11;;;;;;;8.82;7.38;;;;;;;13.44;100.00;95774.38;5127442;27;20109;-69
2023/05/31 00:14:36;;;;;;;8.70;7.80;;;;;;;13.35;100.00;95768.19;5122610;27;20164;-69
2023/05/31 00:17:02;;;;;;;8.20;7.40;;;;;;;13.40;100.00;95770.34;5117971;27;20016;-69
2023/05/31 00:19:27;;;;;;;9.05;7.88;;;;;;;13.34;100.00;95769.16;5121823;27;20023;-69
2023/05/31 00:21:52;;;;;;;8.55;7.70;;;;;;;13.30;100.00;95775.75;5118100;27;20425;-70
2023/05/31 00:24:18;;;;;;;10.43;7.97;;;;;;;13.32;100.00;95777.28;5126928;27;20020;-69
2023/05/31 00:26:43;;;;;;;9.10;8.00;;;;;;;13.33;100.00;95773.66;5116502;28;20051;-69
2023/05/31 00:29:09;;;;;;;8.80;7.82;;;;;;;13.31;100.00;95775.63;5123181;27;20016;-69
2023/05/31 00:31:34;;;;;;;9.88;7.90;;;;;;;13.33;100.00;95778.09;5135697;27;20483;-69
2023/05/31 00:34:00;;;;;;;9.32;7.55;;;;;;;13.36;100.00;95779.59;5122727;27;20047;-69
2023/05/31 00:36:25;;;;;;;10.77;7.00;;;;;;;13.33;100.00;95780.72;5125704;27;20028;-69
2023/05/31 00:38:51;;;;;;;8.13;7.53;;;;;;;13.28;100.00;95785.66;5136104;27;20028;-68
2023/05/31 00:41:17;;;;;;;8.23;7.25;;;;;;;13.25;100.00;95793.91;5125289;27;20056;-69
2023/05/31 00:43:43;;;;;;;8.75;7.55;;;;;;;13.26;100.00;95791.13;5118566;27;20015;-69
2023/05/31 00:46:25;;;;;;;7.65;7.05;;;;;;;13.25;100.00;95792.09;5125740;27;20039;-69
2023/05/31 00:48:51;;;;;;;8.57;7.72;;;;;;;13.24;100.00;95795.72;5127088;27;20027;-69
2023/05/31 00:51:17;;;;;;;9.35;7.45;;;;;;;13.28;100.00;95789.16;5122441;27;20019;-69
2023/05/31 00:53:44;;;;;;;7.88;7.15;;;;;;;13.24;100.00;95787.78;5116977;28;20026;-68
2023/05/31 00:56:10;;;;;;;9.95;7.55;;;;;;;13.17;100.00;95798.19;5115795;28;20022;-69
2023/05/31 00:58:37;;;;;;;9.90;7.97;;;;;;;13.15;100.00;95797.50;5124174;27;20519;-68
2023/05/31 01:01:02;;;;;;;8.40;7.55;;;;;;;13.17;100.00;95792.03;5120926;27;20023;-69
2023/05/31 01:03:28;;;;;;;10.32;8.27;;;;;;;13.20;100.00;95793.56;5124191;27;20019;-69
2023/05/31 01:05:55;;;;;;;8.15;7.38;;;;;;;13.17;100.00;95795.53;5129091;27;20592;-69
2023/05/31 01:08:21;;;;;;;8.73;7.85;;;;;;;13.14;100.00;95793.16;5124812;27;20109;-69
2023/05/31 01:10:46;;;;;;;9.00;7.55;;;;;;;13.13;100.00;95803.91;5115554;28;20507;-69
2023/05/31 01:13:23;;;;;;;8.05;7.15;;;;;;;13.05;100.00;95802.03;5119923;27;20027;-69
2023/05/31 01:16:24;;;;;;;8.43;7.68;;;;;;;13.07;100.00;95801.91;5132552;27;20149;-68
2023/05/31 01:19:02;;;;;;;8.30;7.60;;;;;;;13.06;100.00;95801.06;5121669;27;20426;-68
2023/05/31 01:21:43;;;;;;;8.80;6.95;;;;;;;13.09;100.00;95798.09;5115965;28;20034;-69
2023/05/31 01:24:15;;;;;;;12.27;8.15;;;;;;;13.07;100.00;95801.91;5119540;27;20014;-68
2023/05/31 01:26:48;;;;;;;9.30;8.40;;;;;;;12.98;100.00;95803.66;5122564;27;20053;-69
2023/05/31 01:29:24;;;;;;;8.15;7.40;;;;;;;12.93;100.00;95809.41;5127186;27;20054;-69
2023/05/31 01:31:51;;;;;;;8.40;7.70;;;;;;;12.90;100.00;95805.22;5127057;27;20015;-68
2023/05/31 01:34:16;;;;;;;9.05;7.72;;;;;;;12.90;100.00;95826.38;5121382;27;20026;-69
2023/05/31 01:36:42;;;;;;;8.55;7.75;;;;;;;12.80;100.00;95836.22;5135446;27;20023;-68
2023/05/31 01:39:08;;;;;;;10.48;7.78;;;;;;;12.74;100.00;95831.53;5131868;27;20141;-69
2023/05/31 01:41:42;;;;;;;8.77;7.40;;;;;;;12.72;100.00;95838.78;5122941;27;20064;-68
2023/05/31 01:44:09;;;;;;;7.88;7.15;;;;;;;12.68;100.00;95842.69;5128703;27;20018;-68
2023/05/31 01:46:35;;;;;;;9.20;8.10;;;;;;;12.65;100.00;95843.00;5118777;27;20055;-69
2023/05/31 01:49:01;;;;;;;9.32;7.90;;;;;;;12.58;100.00;95846.25;5118225;27;20019;-68
2023/05/31 01:51:28;;;;;;;8.95;7.30;;;;;;;12.50;100.00;95842.69;5123927;27;20438;-69
2023/05/31 01:53:54;;;;;;;10.30;8.15;;;;;;;12.39;100.00;95849.03;5120691;27;20057;-68
2023/05/31 01:56:21;;;;;;;13.48;7.72;;;;;;;12.42;100.00;95856.66;5120822;27;20023;-68
2023/05/31 01:58:49;;;;;;;8.48;7.65;;;;;;;12.39;100.00;95860.44;5120571;27;20102;-68
2023/05/31 02:01:17;;;;;;;8.23;7.40;;;;;;;12.44;100.00;95860.81;5124033;27;20067;-69
2023/05/31 02:03:43;;;;;;;10.55;7.85;;;;;;;12.53;100.00;95856.44;5121010;27;20017;-68
2023/05/31 02:06:12;;;;;;;8.85;7.55;;;;;;;12.61;100.00;95856.50;5128219;27;20026;-69
2023/05/31 02:08:38;;;;;;;10.50;7.88;;;;;;;12.67;100.00;95848.97;5121289;27;20023;-69
2023/05/31 02:11:03;;;;;;;10.00;7.32;;;;;;;12.68;100.00;95842.69;5120549;27;20023;-68
2023/05/31 02:13:30;;;;;;;8.32;7.50;;;;;;;12.67;100.00;95851.59;5117378;27;20019;-69
2023/05/31 02:15:57;;;;;;;9.85;7.68;;;;;;;12.63;100.00;95852.88;5120131;27;20038;-68
2023/05/31 02:18:26;;;;;;;7.35;6.75;;;;;;;12.69;100.00;95854.91;5127251;27;20023;-68
2023/05/31 02:20:52;;;;;;;8.45;7.75;;;;;;;12.73;100.00;95851.84;5115437;27;20039;-68
2023/05/31 02:23:18;;;;;;;8.70;7.90;;;;;;;12.78;100.00;95853.19;5129758;27;20023;-69
2023/05/31 02:25:48;;;;;;;9.48;7.97;;;;;;;12.76;100.00;95848.06;5118677;27;20225;-69
2023/05/31 02:28:14;;;;;;;9.15;8.35;;;;;;;12.74;100.00;95852.69;5124109;27;20024;-69
2023/05/31 02:30:40;;;;;;;9.13;7.80;;;;;;;12.74;100.00;95855.31;5117384;27;20023;-69
2023/05/31 02:33:07;;;;;;;8.98;7.95;;;;;;;12.71;100.00;95858.25;5124318;27;20164;-69
2023/05/31 02:35:33;;;;;;;8.73;7.90;;;;;;;12.71;100.00;95861.72;5128382;27;20030;-69
2023/05/31 02:37:58;;;;;;;10.80;8.20;;;;;;;12.75;100.00;95860.44;5118272;27;20031;-69
2023/05/31 02:40:23;;;;;;;9.10;8.15;;;;;;;12.79;100.00;95855.69;5121486;27;20035;-68
2023/05/31 02:42:49;;;;;;;9.50;8.27;;;;;;;12.79;100.00;95860.97;5127556;27;20015;-69
2023/05/31 02:45:14;;;;;;;9.07;8.23;;;;;;;12.81;100.00;95852.88;5123794;27;20472;-68
2023/05/31 02:47:40;;;;;;;9.68;8.25;;;;;;;12.79;100.00;95870.69;5120012;27;20075;-69
2023/05/31 02:50:07;;;;;;;8.27;7.55;;;;;;;12.82;100.00;95862.47;5131459;27;20020;-69
2023/05/31 02:52:33;;;;;;;8.88;7.50;;;;;;;12.79;100.00;95852.19;5120847;27;20077;-69
2023/05/31 02:54:59;;;;;;;9.45;8.45;;;;;;;12.73;100.00;95845.75;5120298;27;20019;-69
2023/05/31 02:57:25;;;;;;;9.00;8.20;;;;;;;12.82;100.00;95850.09;5116320;27;20080;-69
2023/05/31 02:59:55;;;;;;;8.95;8.15;;;;;;;12.94;100.00;95849.88;5128061;27;20027;-69
2023/05/31 03:02:21;;;;;;;10.32;9.15;;;;;;;12.85;100.00;95848.97;5117524;27;20047;-68
2023/05/31 03:04:47;;;;;;;8.40;7.60;;;;;;;12.73;100.00;95859.75;5119935;27;20019;-69
2023/05/31 03:07:13;;;;;;;9.52;8.10;;;;;;;12.65;100.00;95854.41;5125954;27;20488;-69
2023/05/31 03:09:39;;;;;;;10.98;8.77;;;;;;;12.64;100.00;95859.84;5117582;28;20020;-69
2023/05/31 03:12:05;;;;;;;8.98;7.88;;;;;;;12.64;100.00;95851.91;5114581;28;20108;-69
2023/05/31 03:14:31;;;;;;;17.45;8.00;;;;;;;12.64;100.00;95857.19;5121807;28;20424;-69
2023/05/31 03:16:56;;;;;;;8.98;8.02;;;;;;;12.65;100.00;95858.84;5116154;28;20012;-69
2023/05/31 03:19:22;;;;;;;9.48;8.60;;;;;;;12.69;100.00;95858.41;5121777;28;20353;-69
2023/05/31 03:21:48;;;;;;;9.98;8.50;;;;;;;12.69;100.00;95855.75;5098109;28;20019;-69
2023/05/31 03:24:13;;;;;;;8.68;7.82;;;;;;;12.71;100.00;95855.59;5128647;27;20488;-69
2023/05/31 03:26:39;;;;;;;11.27;8.25;;;;;;;12.67;100.00;95857.72;5124594;27;20019;-69
2023/05/31 03:29:04;;;;;;;8.90;8.10;;;;;;;12.65;100.00;95864.13;5110276;27;20019;-69
2023/05/31 03:31:30;;;;;;;8.95;8.13;;;;;;;12.69;100.00;95861.03;5122196;27;20051;-69
2023/05/31 03:33:56;;;;;;;8.52;7.72;;;;;;;12.74;100.00;95857.97;5130594;27;20080;-69
2023/05/31 03:36:21;;;;;;;9.77;8.80;;;;;;;12.77;100.00;95860.28;5119122;27;20023;-68
2023/05/31 03:38:46;;;;;;;10.15;8.02;;;;;;;12.78;100.00;95861.09;5133733;27;20038;-69
2023/05/31 03:41:12;;;;;;;8.50;7.70;;;;;;;12.82;100.00;95859.81;5121961;27;20099;-69
2023/05/31 03:43:37;;;;;;;11.65;8.15;;;;;;;12.82;100.00;95863.31;5132019;27;20016;-69
2023/05/31 03:46:02;;;;;;;11.07;7.65;;;;;;;12.89;100.00;95856.41;5125856;27;20043;-69
2023/05/31 03:48:28;;;;;;;11.57;8.25;;;;;;;12.94;100.00;95857.81;5120815;27;20035;-69
2023/05/31 03:50:54;;;;;;;8.90;8.10;;;;;;;13.00;100.00;95847.44;5104890;28;20023;-69
2023/05/31 03:53:19;;;;;;;8.98;8.07;;;;;;;13.07;100.00;95855.56;5122940;27;20031;-69
2023/05/31 03:55:45;;;;;;;9.02;8.20;;;;;;;13.10;100.00;95852.63;5117927;27;20030;-68
2023/05/31 03:58:10;;;;;;;29.67;26.20;;;;;;;13.14;100.00;95856.63;5121802;27;20054;-69
2023/05/31 04:00:36;;;;;;;12.85;11.52;;;;;;;13.18;100.00;95868.56;5124242;27;20029;-70
2023/05/31 04:03:02;;;;;;;9.07;8.25;;;;;;;13.21;100.00;95874.53;5121520;27;20023;-69
2023/05/31 04:05:27;;;;;;;9.82;8.85;;;;;;;13.23;100.00;95867.25;5127617;27;20631;-69
2023/05/31 04:07:53;;;;;;;10.20;9.10;;;;;;;13.25;100.00;95878.50;5128856;27;20058;-69
2023/05/31 04:10:18;;;;;;;9.45;8.52;;;;;;;13.23;100.00;95869.91;5122288;27;20012;-69
2023/05/31 04:12:44;;;;;;;9.13;8.23;;;;;;;13.28;100.00;95878.19;5126280;27;20024;-69
2023/05/31 04:15:10;;;;;;;9.25;8.25;;;;;;;13.33;100.00;95874.13;5124331;27;20024;-70
2023/05/31 04:17:35;;;;;;;13.82;8.50;;;;;;;13.35;100.00;95870.50;5134586;27;20589;-69
2023/05/31 04:20:00;;;;;;;8.68;7.88;;;;;;;13.36;100.00;95870.31;5122002;27;20027;-69
2023/05/31 04:22:26;;;;;;;10.15;8.40;;;;;;;13.33;100.00;95868.81;5123841;27;20383;-69
2023/05/31 04:24:51;;;;;;;11.07;8.27;;;;;;;13.28;100.00;95875.56;5123567;27;20051;-69
2023/05/31 04:27:18;;;;;;;8.80;8.00;;;;;;;13.32;100.00;95879.53;5120895;27;20111;-69
2023/05/31 04:29:46;;;;;;;9.18;8.27;;;;;;;13.37;100.00;95873.81;5125871;27;20032;-69
2023/05/31 04:32:14;;;;;;;10.23;7.95;;;;;;;13.39;100.00;95870.03;5122824;27;20019;-69
2023/05/31 04:34:41;;;;;;;11.30;7.88;;;;;;;13.44;100.00;95873.06;5120161;27;20019;-69
2023/05/31 04:37:07;;;;;;;10.68;8.05;;;;;;;13.44;100.00;95867.78;5129295;27;20491;-69
2023/05/31 04:39:33;;;;;;;9.02;8.23;;;;;;;13.50;100.00;95857.56;5124062;27;20031;-69
2023/05/31 04:41:59;;;;;;;10.48;8.77;;;;;;;13.51;100.00;95859.22;5122222;27;20057;-71
2023/05/31 04:44:24;;;;;;;9.93;8.90;;;;;;;13.56;100.00;95854.28;5125589;27;20028;-68
2023/05/31 04:46:50;;;;;;;9.90;8.95;;;;;;;13.58;100.00;95854.94;5133799;27;20043;-69
2023/05/31 04:49:16;;;;;;;16.35;9.38;;;;;;;13.64;100.00;95858.78;5121559;27;20437;-70
2023/05/31 04:51:41;;;;;;;9.75;8.85;;;;;;;13.70;100.00;95848.41;5120961;27;20015;-69
2023/05/31 04:54:07;;;;;;;10.88;9.77;;;;;;;13.80;100.00;95858.03;5123494;27;20075;-69
2023/05/31 04:56:32;;;;;;;14.63;10.48;;;;;;;13.78;100.00;95860.84;5121099;27;20019;-70
2023/05/31 04:58:58;;;;;;;9.52;8.50;;;;;;;13.74;100.00;95860.31;5130106;27;20041;-70
2023/05/31 05:01:24;;;;;;;10.48;8.63;;;;;;;13.78;100.00;95866.16;5123403;27;20088;-70
2023/05/31 05:03:51;;;;;;;10.18;9.25;;;;;;;13.80;100.00;95869.47;5121011;27;20098;-69
2023/05/31 05:06:17;;;;;;;9.25;8.20;;;;;;;13.88;100.00;95876.63;5121695;27;20023;-70
2023/05/31 05:08:43;;;;;;;10.60;8.77;;;;;;;13.98;100.00;95871.19;5122435;27;20543;-69
2023/05/31 05:11:09;;;;;;;10.05;8.95;;;;;;;14.01;100.00;95869.06;5124682;27;20099;-70
2023/05/31 05:13:35;;;;;;;8.70;7.90;;;;;;;14.04;100.00;95858.16;5126044;27;20024;-70
2023/05/31 05:16:02;;;;;;;9.23;8.27;;;;;;;14.15;100.00;95853.56;5124825;27;20477;-68
2023/05/31 05:18:28;;;;;;;9.70;8.70;;;;;;;14.19;100.00;95852.25;5119941;27;20083;-68
2023/05/31 05:20:53;;;;;;;9.32;8.07;;;;;;;14.28;100.00;95847.81;5118945;27;20027;-68
2023/05/31 05:23:19;;;;;;;9.05;7.82;;;;;;;14.32;100.00;95846.47;5109334;28;20042;-68
2023/05/31 05:25:45;;;;;;;12.27;7.97;;;;;;;14.33;100.00;95851.63;5118973;27;20465;-68
2023/05/31 05:28:10;;;;;;;12.88;8.38;;;;;;;14.40;100.00;95853.63;5127191;27;20072;-67
2023/05/31 05:30:36;;;;;;;12.75;8.68;;;;;;;14.45;100.00;95857.44;5119898;27;20531;-67
2023/05/31 05:33:01;;;;;;;15.90;8.30;;;;;;;14.67;100.00;95857.81;5122773;27;20027;-68
2023/05/31 05:35:27;;;;;;;10.02;8.18;;;;;;;14.64;100.00;95857.31;5120588;27;20030;-67
2023/05/31 05:37:52;;;;;;;9.20;8.18;;;;;;;14.48;100.00;95861.59;5117302;27;20088;-68
2023/05/31 05:40:19;;;;;;;10.48;8.05;;;;;;;14.42;100.00;95872.84;5128284;27;20046;-68
2023/05/31 05:42:45;;;;;;;11.10;9.07;;;;;;;14.46;100.00;95874.16;5133109;27;20029;-68
2023/05/31 05:45:11;;;;;;;8.73;7.93;;;;;;;14.47;100.00;95876.66;5124083;27;20138;-68
2023/05/31 05:47:37;;;;;;;9.55;8.32;;;;;;;14.54;100.00;95878.66;5121405;27;20060;-68
2023/05/31 05:50:02;;;;;;;10.45;8.13;;;;;;;14.48;100.00;95882.81;5117847;27;20537;-68
2023/05/31 05:52:28;;;;;;;10.88;8.15;;;;;;;14.53;100.00;95885.78;5116329;27;20027;-68
2023/05/31 05:54:53;;;;;;;9.98;8.32;;;;;;;14.57;100.00;95883.63;5122672;27;20137;-68
2023/05/31 05:57:19;;;;;;;9.98;8.23;;;;;;;14.83;100.00;95880.09;5123879;27;20464;-67
2023/05/31 05:59:45;;;;;;;12.00;8.38;;;;;;;14.84;100.00;95879.91;5129760;27;20055;-67
2023/05/31 06:02:11;;;;;;;8.88;7.97;;;;;;;14.83;100.00;95883.53;5117167;27;20126;-69
2023/05/31 06:04:37;;;;;;;10.95;8.43;;;;;;;14.77;100.00;95892.16;5124574;27;20054;-68
2023/05/31 06:07:03;;;;;;;16.90;9.35;;;;;;;14.76;100.00;95895.81;5123933;27;20015;-68
2023/05/31 06:09:28;;;;;;;9.63;8.50;;;;;;;14.75;100.00;95892.31;5122820;27;20068;-68
2023/05/31 06:11:54;;;;;;;15.93;8.27;;;;;;;14.81;100.00;95898.78;5128794;27;20162;-68
2023/05/31 06:14:19;;;;;;;13.40;8.77;;;;;;;14.82;100.00;95897.78;5116616;27;20016;-68
2023/05/31 06:16:45;;;;;;;20.35;9.18;;;;;;;14.87;100.00;95886.69;5125017;27;20027;-68
2023/05/31 06:19:10;;;;;;;11.32;8.52;;;;;;;14.89;100.00;95896.13;5117471;27;20020;-68
2023/05/31 06:21:35;;;;;;;12.13;8.98;;;;;;;14.87;100.00;95902.59;5119944;27;20380;-69
2023/05/31 06:24:02;;;;;;;9.43;7.47;;;;;;;14.88;100.00;95906.91;5127676;27;20061;-69
2023/05/31 06:26:28;;;;;;;8.55;7.70;;;;;;;14.97;100.00;95897.97;5124010;27;20027;-70
2023/05/31 06:28:53;;;;;;;11.05;8.90;;;;;;;15.09;100.00;95905.63;5116565;27;20019;-69
2023/05/31 06:31:19;;;;;;;9.05;7.97;;;;;;;15.21;100.00;95887.53;5114497;27;20027;-67
2023/05/31 06:33:44;;;;;;;10.90;8.48;;;;;;;15.35;100.00;95878.09;5120289;27;20124;-69
2023/05/31 06:36:10;;;;;;;9.90;7.95;;;;;;;15.40;100.00;95881.06;5105086;27;20018;-68
2023/05/31 06:38:35;;;;;;;16.83;7.93;;;;;;;15.53;100.00;95875.25;5126289;27;20019;-67
2023/05/31 06:41:01;;;;;;;8.63;7.70;;;;;;;15.65;100.00;95873.91;5113072;27;20056;-66
2023/05/31 06:43:26;;;;;;;12.50;8.32;;;;;;;15.81;100.00;95866.91;5127697;27;20019;-68
2023/05/31 06:45:52;;;;;;;8.80;7.90;;;;;;;15.87;100.00;95861.72;5133905;27;20118;-68
2023/05/31 06:48:17;;;;;;;11.00;8.07;;;;;;;15.98;100.00;95862.38;5122596;27;20032;-68
2023/05/31 06:50:43;;;;;;;9.93;8.32;;;;;;;16.10;100.00;95861.00;5125001;27;20163;-68
2023/05/31 06:53:12;;;;;;;13.43;8.02;;;;;;;16.22;100.00;95842.84;5122411;27;20572;-70
2023/05/31 06:55:38;;;;;;;9.82;8.13;;;;;;;16.27;100.00;95829.91;5119840;27;20099;-69
2023/05/31 06:58:04;;;;;;;10.93;7.65;;;;;;;16.38;100.00;95833.16;5127890;27;20027;-67
2023/05/31 07:00:30;;;;;;;10.00;8.60;;;;;;;16.46;100.00;95833.94;5115856;27;20023;-68
2023/05/31 07:02:55;;;;;;;17.40;10.00;;;;;;;16.53;100.00;95827.91;5119033;27;20056;-67
2023/05/31 07:05:21;;;;;;;11.75;8.32;;;;;;;16.46;100.00;95818.00;5113736;28;20022;-67
2023/05/31 07:07:47;;;;;;;9.25;8.30;;;;;;;16.51;100.00;95825.44;5136633;27;20461;-67
2023/05/31 07:10:12;;;;;;;10.07;8.45;;;;;;;16.56;100.00;95832.88;5114570;28;20614;-67
2023/05/31 07:12:38;;;;;;;8.85;7.93;;;;;;;16.61;100.00;95836.66;5114823;28;20046;-67
2023/05/31 07:15:03;;;;;;;9.13;7.75;;;;;;;16.85;100.00;95826.84;5116525;28;20107;-67
2023/05/31 07:17:29;;;;;;;11.25;7.63;;;;;;;16.86;100.00;95811.75;5119759;28;20025;-67
2023/05/31 07:19:54;;;;;;;8.73;7.47;;;;;;;16.97;100.00;95824.59;5116863;27;20031;-67
2023/05/31 07:22:22;;;;;;;7.65;6.93;;;;;;;17.07;100.00;95816.41;5129021;28;20385;-67
2023/05/31 07:24:48;;;;;;;8.02;5.55;;;;;;;17.06;100.00;95808.63;5115384;28;20539;-67
2023/05/31 07:27:13;;;;;;;8.27;6.30;;;;;;;17.08;100.00;95807.41;5133685;28;20019;-67
2023/05/31 07:29:39;;;;;;;6.18;5.68;;;;;;;17.13;100.00;95802.41;5124738;28;20020;-67
2023/05/31 07:32:05;;;;;;;6.72;6.13;;;;;;;17.27;100.00;95807.91;5116563;27;20024;-67
2023/05/31 07:34:31;;;;;;;7.60;5.65;;;;;;;17.27;100.00;95803.44;5127531;28;20031;-67
2023/05/31 07:36:57;;;;;;;5.43;5.03;;;;;;;17.33;100.00;95801.84;5125838;27;20029;-67
2023/05/31 07:39:23;;;;;;;5.72;5.22;;;;;;;17.34;100.00;95803.50;5132868;27;20480;-67
2023/05/31 07:41:48;;;;;;;11.98;5.80;;;;;;;17.35;100.00;95817.66;5130222;27;20020;-67
2023/05/31 07:44:16;;;;;;;5.68;5.15;;;;;;;17.40;100.00;95810.78;5124608;28;20011;-67
2023/05/31 07:46:42;;;;;;;7.63;6.57;;;;;;;17.51;100.00;95806.00;5126683;27;20075;-67
2023/05/31 07:49:08;;;;;;;9.85;7.50;;;;;;;17.49;100.00;95816.00;5122582;28;20720;-67
2023/05/31 07:51:33;;;;;;;8.15;7.22;;;;;;;17.41;100.00;95827.56;5119737;28;20080;-67
2023/05/31 07:53:58;;;;;;;8.95;7.25;;;;;;;17.31;100.00;95818.03;5129971;27;20494;-67
2023/05/31 07:56:25;;;;;;;7.97;7.22;;;;;;;17.56;100.00;95816.94;5128707;28;20062;-67
2023/05/31 07:58:50;;;;;;;6.18;5.50;;;;;;;17.58;100.00;95809.63;5121889;28;20023;-67
2023/05/31 08:01:16;;;;;;;5.82;5.30;;;;;;;17.54;100.00;95814.47;5132152;28;20030;-67
2023/05/31 08:03:41;;;;;;;5.70;5.15;;;;;;;17.52;100.00;95812.97;5126773;28;20027;-66
2023/05/31 08:06:07;;;;;;;7.53;6.57;;;;;;;17.58;100.00;95804.28;5137387;27;20083;-67
2023/05/31 08:08:33;;;;;;;10.52;7.07;;;;;;;17.63;100.00;95803.72;5128864;28;20555;-67
2023/05/31 08:11:00;;;;;;;7.75;6.80;;;;;;;17.60;100.00;95802.25;5116964;27;20020;-67
2023/05/31 08:13:25;;;;;;;7.95;6.20;;;;;;;17.55;100.00;95807.28;5119842;27;20049;-67
2023/05/31 08:15:52;;;;;;;6.95;5.57;;;;;;;17.45;100.00;95816.38;5136343;27;20015;-67
2023/05/31 08:18:17;;;;;;;6.78;6.07;;;;;;;17.53;100.00;95804.81;5138995;27;20030;-67
2023/05/31 08:20:43;;;;;;;6.15;5.35;;;;;;;17.54;100.00;95821.59;5124852;27;20015;-67
2023/05/31 08:23:09;;;;;;;6.05;5.03;;;;;;;17.50;100.00;95815.00;5139058;27;20415;-67
2023/05/31 08:25:34;;;;;;;5.82;5.32;;;;;;;17.59;100.00;95822.72;5124228;27;20379;-67
2023/05/31 08:28:00;;;;;;;6.45;5.88;;;;;;;17.55;100.00;95820.59;5125775;27;20023;-67
2023/05/31 08:30:25;;;;;;;5.57;5.07;;;;;;;17.53;100.00;95827.94;5121324;27;20023;-67
2023/05/31 08:32:51;;;;;;;7.82;5.57;;;;;;;17.54;100.00;95819.78;5129319;27;20080;-68
2023/05/31 08:35:16;;;;;;;5.55;5.00;;;;;;;17.58;100.00;95809.63;5133029;27;20072;-67
2023/05/31 08:37:42;;;;;;;6.72;5.35;;;;;;;17.54;100.00;95810.97;5147651;27;20478;-67
2023/05/31 08:40:08;;;;;;;5.88;5.00;;;;;;;17.53;100.00;95802.16;5126336;27;20015;-67
2023/05/31 08:42:50;;;;;;;5.97;5.43;;;;;;;17.51;100.00;95814.00;5132325;27;20069;-67
2023/05/31 08:45:17;;;;;;;6.55;5.95;;;;;;;17.65;100.00;95820.31;5126281;27;20015;-67
2023/05/31 08:47:45;;;;;;;6.40;5.75;;;;;;;17.89;100.00;95805.91;5138396;27;20047;-67
2023/05/31 08:50:12;;;;;;;9.75;5.82;;;;;;;17.93;100.00;95795.72;5122149;27;20031;-67
2023/05/31 08:52:39;;;;;;;15.57;7.80;;;;;;;18.04;100.00;95803.25;5118222;27;20023;-67
2023/05/31 08:55:05;;;;;;;55.53;16.98;;;;;;;17.97;100.00;95816.47;5117744;28;20042;-67
2023/05/31 08:57:31;;;;;;;52.05;17.23;;;;;;;18.13;100.00;95806.66;5118065;28;20058;-67
2023/05/31 08:59:58;;;;;;;6.32;5.63;;;;;;;18.05;100.00;95804.91;5122753;27;20023;-67
2023/05/31 09:02:25;;;;;;;8.70;6.38;;;;;;;17.98;100.00;95806.66;5127532;27;20024;-66
2023/05/31 09:04:50;;;;;;;8.52;5.95;;;;;;;17.85;100.00;95797.47;5124995;27;20072;-67
2023/05/31 09:07:16;;;;;;;12.07;6.90;;;;;;;17.90;100.00;95803.09;5127049;27;20020;-66
2023/05/31 09:09:42;;;;;;;6.20;5.60;;;;;;;17.97;100.00;95792.50;5136652;27;20019;-67
2023/05/31 09:12:07;;;;;;;6.63;5.63;;;;;;;18.06;100.00;95787.91;5133477;27;20026;-67
2023/05/31 09:14:34;;;;;;;7.55;6.25;;;;;;;18.20;100.00;95791.56;5118945;27;20019;-67
2023/05/31 09:17:00;;;;;;;7.10;5.72;;;;;;;18.21;100.00;95801.19;5117241;28;20032;-67
2023/05/31 09:19:25;;;;;;;8.75;6.00;;;;;;;18.24;100.00;95800.84;5132985;27;20156;-68
2023/05/31 09:21:52;;;;;;;7.47;5.65;;;;;;;18.37;100.00;95786.00;5122574;27;20065;-67
2023/05/31 09:24:19;;;;;;;6.05;5.45;;;;;;;18.58;100.00;95777.22;5117613;28;20023;-67
2023/05/31 09:26:52;;;;;;;6.03;5.47;;;;;;;18.59;100.00;95777.00;5118504;27;20034;-67
2023/05/31 09:29:19;;;;;;;6.53;5.40;;;;;;;18.64;100.00;95760.44;5124036;27;20082;-66
2023/05/31 09:31:45;;;;;;;5.72;5.18;;;;;;;18.50;100.00;95753.34;5118262;27;20033;-67
2023/05/31 09:34:25;;;;;;;6.90;4.93;;;;;;;18.45;100.00;95751.22;5128505;27;20430;-67
2023/05/31 09:36:51;;;;;;;6.28;5.32;;;;;;;18.31;100.00;95747.59;5135606;27;20015;-67
2023/05/31 09:39:17;;;;;;;5.15;4.75;;;;;;;18.33;100.00;95746.41;5134481;27;20068;-67
2023/05/31 09:41:43;;;;;;;5.40;4.93;;;;;;;18.45;100.00;95741.41;5116908;27;20016;-67
2023/05/31 09:44:08;;;;;;;4.93;4.43;;;;;;;18.41;100.00;95742.81;5125029;27;20011;-67
2023/05/31 09:46:34;;;;;;;6.78;4.60;;;;;;;18.57;100.00;95747.06;5130098;27;20043;-67
2023/05/31 09:49:06;;;;;;;4.43;4.03;;;;;;;18.66;100.00;95746.91;5117161;28;20031;-67
2023/05/31 09:51:33;;;;;;;5.30;4.80;;;;;;;18.82;100.00;95738.66;5121285;27;20033;-67
2023/05/31 09:54:11;;;;;;;6.57;4.88;;;;;;;18.76;100.00;95736.75;5136192;27;20027;-67
2023/05/31 09:56:38;;;;;;;5.10;4.72;;;;;;;18.84;100.00;95751.81;5117241;27;20027;-67
2023/05/31 09:59:05;;;;;;;9.13;6.03;;;;;;;19.01;100.00;95760.38;5122247;27;20380;-67
2023/05/31 10:01:36;;;;;;;6.20;5.60;;;;;;;19.14;100.00;95747.16;5125278;27;20546;-67
2023/05/31 10:04:06;;;;;;;7.63;5.80;;;;;;;19.11;100.00;95744.84;5119785;27;20374;-67
2023/05/31 10:06:34;;;;;;;11.45;6.00;;;;;;;19.46;100.00;95736.84;5123529;27;20027;-68
2023/05/31 10:09:02;;;;;;;8.30;5.28;;;;;;;19.50;100.00;95731.13;5126465;27;20081;-67
2023/05/31 10:11:34;;;;;;;7.32;5.70;;;;;;;19.47;100.00;95737.69;5136887;27;20102;-67
2023/05/31 10:14:02;;;;;;;6.18;5.45;;;;;;;19.57;100.00;95727.47;5119641;27;20020;-67
2023/05/31 10:16:36;;;;;;;5.63;5.13;;;;;;;19.83;100.00;95709.09;5135358;27;20050;-67
2023/05/31 10:19:05;;;;;;;6.88;5.18;;;;;;;19.56;100.00;95709.81;5132410;27;20026;-67
2023/05/31 10:21:34;;;;;;;5.95;4.97;;;;;;;19.71;100.00;95715.00;5109408;27;20023;-66
2023/05/31 10:24:08;;;;;;;5.53;4.80;;;;;;;20.14;100.00;95691.75;5136103;27;20428;-66
2023/05/31 10:27:02;;;;;;;4.78;4.43;;;;;;;20.64;100.00;95686.06;5132888;27;20022;-67
2023/05/31 10:29:38;;;;;;;6.35;4.75;;;;;;;20.81;100.00;95689.16;5128294;27;20022;-67
2023/05/31 10:32:15;;;;;;;5.82;4.63;;;;;;;20.62;100.00;95669.38;5118233;27;20035;-67
2023/05/31 10:34:41;;;;;;;6.75;4.40;;;;;;;20.73;100.00;95670.63;5114856;28;20028;-67
2023/05/31 10:37:09;;;;;;;5.35;4.43;;;;;;;20.72;100.00;95652.94;5126898;27;20018;-67
2023/05/31 10:39:44;;;;;;;4.88;4.53;;;;;;;20.95;100.00;95662.41;5143597;27;20027;-67
2023/05/31 10:42:19;;;;;;;4.93;4.50;;;;;;;21.08;100.00;95643.63;5128218;27;20011;-67
2023/05/31 10:44:53;;;;;;;;;;;;;;;20.58;100.00;95662.81;5129907;27;20450;-67
2023/05/31 10:47:26;;;;;;;4.72;4.32;;;;;;;20.73;100.00;95662.59;5128260;27;20030;-67
2023/05/31 10:49:55;;;;;;;4.65;4.25;;;;;;;20.73;100.00;95675.97;5131076;27;20489;-67
2023/05/31 10:52:20;;;;;;;4.90;4.50;;;;;;;20.84;100.00;95667.34;5123928;27;20142;-67
2023/05/31 10:54:46;;;;;;;4.93;4.53;;;;;;;20.98;100.00;95660.09;5122486;27;20048;-66
2023/05/31 10:57:12;;;;;;;6.63;4.90;;;;;;;21.02;100.00;95665.88;5121284;27;20035;-67
2023/05/31 10:59:45;;;;;;;5.93;4.90;;;;;;;21.13;100.00;95651.88;5123685;27;20020;-67
2023/05/31 11:02:11;;;;;;;5.30;4.90;;;;;;;21.21;100.00;95668.72;5116513;28;20039;-67
2023/05/31 11:04:37;;;;;;;11.93;5.35;;;;;;;21.39;100.00;95658.19;5122093;27;20096;-67
2023/05/31 11:07:19;;;;;;;4.97;4.57;;;;;;;21.50;100.00;95653.19;5140237;27;20072;-66
2023/05/31 11:10:23;;;;;;;5.10;4.70;;;;;;;21.39;100.00;95646.63;5118533;27;20055;-67
2023/05/31 11:12:48;;;;;;;5.75;4.95;;;;;;;21.60;100.00;95658.94;5134839;27;20514;-67
2023/05/31 11:15:14;;;;;;;5.60;5.07;;;;;;;21.80;100.00;95641.97;5120070;28;20012;-67
2023/05/31 11:17:51;;;;;;;8.13;4.40;;;;;;;21.98;100.00;95609.88;5119208;28;20043;-67
2023/05/31 11:20:17;;;;;;;4.32;4.03;;;;;;;22.13;100.00;95600.72;5118009;28;20027;-68
2023/05/31 11:22:43;;;;;;;4.05;3.65;;;;;;;22.23;100.00;95593.03;5117242;28;20044;-67